Hauptseite
METAR-TAF:

METAR-TAF

Flughäfen :

Flughafen Bremen

Bremen, Deutschland

Breite: 53-03N, Länge: 008-48E, Höhe: 3 m

Beobachtung

Neuester Wetterbericht von vor 39 Minuten, um 11:50 UTC
Wind 8 kt aus Ost/Südost
Temperatur 9°C
Luftfeuchtigkeit 71%
Luftdruck 1031 hPa
Sichtweite 10 km oder mehr
keine Wolken unter 1500 m und keine Kumulonimbus oder Gewitterwolken

METAR: EDDW 161150Z 11008KT CAVOK 09/04 Q1031 NOSIG

Zeit: 13:29 (12:29 UTC)

Prognose

Neuester Wetterbericht von vor 1 Stunde und 29 Minuten, um 11:00 UTC
Gültige Prognose vom 16 um 12 UTC bis 17 um 12 UTC
Wind 9 kt aus Ost/Südost
Sichtweite 10 km oder mehr
keine Wolken unter 1500 m und keine Kumulonimbus oder Gewitterwolken
Wahrscheinlichkeit 30% :
Zeitweise
vom 16 um 20 UTC bis 17 um 10 UTC
Sichtweite: 4000 m
Durchbrochene Bewölkung in der Höhe von 800 ft
feuchter Dunst

TAF: EDDW 161100Z 1612/1712 11009KT CAVOK PROB30 TEMPO 1620/1710 4000 BR BKN008

Wetterbeobachtungen und Prognosen von mehr als 4000 Flughäfen (METAR und TAF Bericht).

Die verfügbaren Stationen werden durch gelbe und rote Markierungen auf der Karte dargestellt.

Führen Sie die Maus auf sie, um den Namen der Station zu sehen.

Darauf klicken, um die Beobachtung von Wetterbeobachtungen und Prognosen zu sehen.

Um die Karte zu ändern : klicken Sie auf den grünen Tasten mit einem schwarzen Kreuz Zum Vergrößern, auf den grünen Button mit einem Gedankenstrich zu verkleinern, oder auf die grünen Pfeile für benachbarte Karten.


METAR-TAF: